Time;durP1;ratioP1;P1;durP2;ratioP2;P2;SDS_P1;SDS_P2;PMS_P1;PMS_P2;Temp;Humidity;BMP_temperature;BMP_pressure;BME280_temperature;BME280_humidity;BME280_pressure;Samples;Min_cycle;Max_cycle;Signal;HPM_P1;HPM_P2
2024/03/23 00:01:04;;;;;;;36.70;18.33;;;;;;;10.51;100.00;100243.75;5043228;28;20201;-71
2024/03/23 00:03:33;;;;;;;32.27;18.97;;;;;;;10.52;100.00;100232.09;5062605;28;20540;-71
2024/03/23 00:06:01;;;;;;;35.87;19.27;;;;;;;10.53;100.00;100236.28;5057264;28;20212;-71
2024/03/23 00:08:30;;;;;;;34.40;18.27;;;;;;;10.53;100.00;100238.13;5061340;28;20206;-71
2024/03/23 00:10:58;;;;;;;31.83;17.73;;;;;;;10.54;100.00;100234.38;5064127;28;20213;-71
2024/03/23 00:13:27;;;;;;;32.60;18.07;;;;;;;10.53;100.00;100232.84;5060945;28;20233;-71
2024/03/23 00:15:55;;;;;;;31.63;17.43;;;;;;;10.54;100.00;100226.47;5059462;28;20732;-71
2024/03/23 00:18:25;;;;;;;30.10;17.27;;;;;;;10.54;100.00;100218.56;5060748;28;20195;-71
2024/03/23 00:20:54;;;;;;;29.50;17.40;;;;;;;10.53;100.00;100211.75;5062397;28;20212;-71
2024/03/23 00:23:23;;;;;;;33.43;18.70;;;;;;;10.54;100.00;100210.63;5044361;28;20384;-71
2024/03/23 00:25:51;;;;;;;30.30;17.83;;;;;;;10.53;100.00;100207.25;5063577;28;20214;-71
2024/03/23 00:28:20;;;;;;;31.17;17.93;;;;;;;10.53;100.00;100204.59;5064534;28;20245;-71
2024/03/23 00:30:48;;;;;;;34.53;18.73;;;;;;;10.54;100.00;100202.72;5065443;28;20205;-71
2024/03/23 00:33:18;;;;;;;32.73;16.57;;;;;;;10.54;100.00;100206.13;5061568;28;20207;-71
2024/03/23 00:35:46;;;;;;;29.97;16.17;;;;;;;10.53;100.00;100211.75;5058995;28;20229;-71
2024/03/23 00:38:16;;;;;;;32.00;16.30;;;;;;;10.54;100.00;100202.72;5061662;28;20198;-71
2024/03/23 00:40:44;;;;;;;27.33;16.00;;;;;;;10.53;100.00;100201.19;5060862;28;20230;-71
2024/03/23 00:43:13;;;;;;;25.30;14.47;;;;;;;10.51;100.00;100193.59;5056484;28;20197;-71
2024/03/23 00:45:41;;;;;;;26.60;15.33;;;;;;;10.51;100.00;100193.59;5068423;28;20225;-71
2024/03/23 00:48:10;;;;;;;24.23;13.77;;;;;;;10.49;100.00;100184.47;5058596;28;20201;-71
2024/03/23 00:50:38;;;;;;;25.13;14.07;;;;;;;10.49;100.00;100181.81;5059481;28;20669;-71
2024/03/23 00:53:06;;;;;;;22.17;13.33;;;;;;;10.48;100.00;100180.28;5058402;28;20202;-71
2024/03/23 00:55:32;;;;;;;22.47;13.33;;;;;;;10.46;100.00;100177.97;5062431;28;20202;-71
2024/03/23 00:57:57;;;;;;;22.00;13.40;;;;;;;10.45;100.00;100173.81;5064213;28;20216;-71
2024/03/23 01:00:24;;;;;;;23.80;12.37;;;;;;;10.43;100.00;100178.66;5061838;28;20194;-71
2024/03/23 01:02:49;;;;;;;19.87;11.50;;;;;;;10.42;100.00;100176.34;5059618;28;20264;-71
2024/03/23 01:05:15;;;;;;;21.10;11.70;;;;;;;10.40;100.00;100178.56;5059489;28;20207;-71
2024/03/23 01:07:41;;;;;;;21.90;10.80;;;;;;;10.37;100.00;100177.34;5060327;28;20201;-71
2024/03/23 01:10:09;;;;;;;17.30;10.70;;;;;;;10.33;100.00;100179.13;5060591;28;20213;-71
2024/03/23 01:12:35;;;;;;;18.37;11.23;;;;;;;10.31;100.00;100176.03;5045081;28;20213;-71
2024/03/23 01:15:01;;;;;;;23.53;10.53;;;;;;;10.29;100.00;100172.97;5060485;28;20193;-71
2024/03/23 01:17:27;;;;;;;18.93;10.83;;;;;;;10.28;100.00;100178.56;5056047;28;20222;-71
2024/03/23 01:19:53;;;;;;;20.37;10.67;;;;;;;10.24;100.00;100172.44;5061567;28;20192;-71
2024/03/23 01:22:18;;;;;;;20.67;10.40;;;;;;;10.22;100.00;100174.63;5057033;28;20230;-71
2024/03/23 01:24:45;;;;;;;18.17;10.00;;;;;;;10.20;100.00;100169.66;5061668;28;20582;-71
2024/03/23 01:27:11;;;;;;;21.67;11.23;;;;;;;10.19;100.00;100162.88;5062413;28;20220;-71
2024/03/23 01:29:38;;;;;;;19.40;11.10;;;;;;;10.18;100.00;100160.53;5059927;28;20219;-71
2024/03/23 01:32:04;;;;;;;20.73;11.53;;;;;;;10.15;100.00;100154.06;5058451;28;20192;-71
2024/03/23 01:34:31;;;;;;;17.87;9.97;;;;;;;10.14;100.00;100149.91;5059554;28;20806;-71
2024/03/23 01:36:56;;;;;;;21.37;11.17;;;;;;;10.11;100.00;100153.22;5061831;28;20224;-71
2024/03/23 01:39:23;;;;;;;19.77;10.97;;;;;;;10.10;100.00;100153.53;5060635;28;20621;-71
2024/03/23 01:41:48;;;;;;;18.30;11.50;;;;;;;10.08;100.00;100153.09;5061961;28;20225;-71
2024/03/23 01:44:16;;;;;;;22.37;11.93;;;;;;;10.06;100.00;100148.16;5061976;28;20296;-71
2024/03/23 01:46:42;;;;;;;19.77;10.87;;;;;;;10.05;100.00;100145.84;5054831;28;20230;-71
2024/03/23 01:49:09;;;;;;;20.60;11.80;;;;;;;10.04;100.00;100141.69;5062930;28;20192;-71
2024/03/23 01:51:35;;;;;;;20.93;12.30;;;;;;;10.02;100.00;100139.34;5055752;28;20218;-71
2024/03/23 01:54:04;;;;;;;21.50;11.63;;;;;;;10.01;100.00;100137.81;5059901;28;20201;-71
2024/03/23 01:56:29;;;;;;;20.83;11.07;;;;;;;10.00;100.00;100144.16;5061880;28;20224;-72
2024/03/23 01:58:56;;;;;;;22.07;11.67;;;;;;;9.99;100.00;100141.88;5058702;28;20689;-71
2024/03/23 02:01:23;;;;;;;20.20;11.60;;;;;;;9.99;100.00;100136.59;5058865;28;20204;-71
2024/03/23 02:03:49;;;;;;;20.93;11.17;;;;;;;9.98;100.00;100127.13;5057646;28;20199;-71
2024/03/23 02:06:15;;;;;;;21.00;12.10;;;;;;;9.98;100.00;100127.91;5060067;28;20311;-71
2024/03/23 02:08:41;;;;;;;22.43;11.60;;;;;;;9.97;100.00;100118.47;5061345;28;20642;-71
2024/03/23 02:11:07;;;;;;;21.00;11.67;;;;;;;9.97;100.00;100115.81;5058764;28;20198;-71
2024/03/23 02:13:33;;;;;;;21.20;12.07;;;;;;;9.96;100.00;100116.94;5062486;28;20235;-71
2024/03/23 02:15:59;;;;;;;20.10;11.87;;;;;;;9.96;100.00;100113.50;5060784;28;20230;-71
2024/03/23 02:18:26;;;;;;;22.93;12.30;;;;;;;9.94;100.00;100105.94;5059318;28;20549;-71
2024/03/23 02:20:52;;;;;;;22.10;11.70;;;;;;;9.95;100.00;100111.97;5066137;28;20210;-71
2024/03/23 02:23:20;;;;;;;22.20;12.77;;;;;;;9.94;100.00;100113.84;5059327;28;20570;-71
2024/03/23 02:25:45;;;;;;;9.57;4.40;;;;;;;9.79;100.00;100132.97;5059655;28;20299;-71
2024/03/23 02:28:11;;;;;;;7.87;3.10;;;;;;;9.57;100.00;100120.25;5059939;28;20279;-71
2024/03/23 02:30:37;;;;;;;9.30;3.27;;;;;;;9.45;100.00;100117.59;5061707;28;20287;-71
2024/03/23 02:33:04;;;;;;;8.53;2.83;;;;;;;9.32;100.00;100125.81;5064497;28;20295;-71
2024/03/23 02:35:30;;;;;;;6.43;3.30;;;;;;;9.17;100.00;100111.41;5066116;28;20788;-71
2024/03/23 02:37:57;;;;;;;7.43;2.40;;;;;;;9.03;100.00;100083.84;5049009;28;20214;-71
2024/03/23 02:40:24;;;;;;;7.50;2.20;;;;;;;8.94;100.00;100080.53;5067630;28;20210;-71
2024/03/23 02:42:50;;;;;;;11.80;2.37;;;;;;;8.80;100.00;100087.97;5064958;28;20202;-71
2024/03/23 02:45:16;;;;;;;10.40;2.37;;;;;;;8.68;100.00;100077.38;5063904;28;20610;-71
2024/03/23 02:47:42;;;;;;;12.33;2.00;;;;;;;8.59;100.00;100089.88;5068767;28;20214;-71
2024/03/23 02:50:08;;;;;;;5.97;1.80;;;;;;;8.49;100.00;100093.66;5067394;28;20557;-71
2024/03/23 02:52:35;;;;;;;9.03;2.43;;;;;;;8.42;100.00;100096.03;5067334;28;20207;-71
2024/03/23 02:55:01;;;;;;;5.80;2.53;;;;;;;8.36;100.00;100078.13;5064346;28;20205;-71
2024/03/23 02:57:29;;;;;;;9.87;2.23;;;;;;;8.29;100.00;100081.28;5058836;28;20218;-71
2024/03/23 02:59:55;;;;;;;9.67;2.13;;;;;;;8.27;100.00;100061.66;5066359;28;20194;-71
2024/03/23 03:02:22;;;;;;;9.17;2.00;;;;;;;8.21;100.00;100060.31;5070564;28;20197;-71
2024/03/23 03:04:47;;;;;;;7.73;1.80;;;;;;;8.16;100.00;100061.25;5065425;28;20203;-71
2024/03/23 03:07:14;;;;;;;9.17;2.20;;;;;;;8.13;100.00;100063.75;5065882;28;20212;-71
2024/03/23 03:09:39;;;;;;;6.23;2.30;;;;;;;8.10;100.00;100053.88;5066747;28;20213;-71
2024/03/23 03:12:06;;;;;;;9.03;2.70;;;;;;;8.09;100.00;100058.38;5062700;28;20210;-71
2024/03/23 03:14:33;;;;;;;9.57;2.23;;;;;;;8.06;100.00;100066.91;5066699;28;20210;-71
2024/03/23 03:16:59;;;;;;;12.13;2.30;;;;;;;8.05;100.00;100068.00;5060714;28;20224;-71
2024/03/23 03:23:13;;;;;;;9.60;2.50;;;;;;;8.02;100.00;100052.84;5071307;28;20673;-71
2024/03/23 03:25:38;;;;;;;5.33;1.87;;;;;;;8.01;100.00;100055.78;5070412;28;20220;-71
2024/03/23 03:28:05;;;;;;;14.77;2.40;;;;;;;8.01;100.00;100053.16;5065199;28;20208;-71
2024/03/23 03:30:32;;;;;;;6.43;2.10;;;;;;;8.00;100.00;100041.13;5059731;28;20277;-71
2024/03/23 03:32:58;;;;;;;10.30;1.70;;;;;;;8.00;100.00;100041.13;5065474;28;20278;-71
2024/03/23 03:35:24;;;;;;;10.27;2.10;;;;;;;8.00;100.00;100043.75;5068449;28;20208;-71
2024/03/23 03:37:50;;;;;;;10.07;2.13;;;;;;;7.96;100.00;100041.00;5057844;28;20221;-71
2024/03/23 03:40:16;;;;;;;8.00;2.10;;;;;;;7.97;100.00;100039.88;5064120;28;20207;-71
2024/03/23 03:42:42;;;;;;;9.70;2.47;;;;;;;7.96;100.00;100037.56;5068022;28;20194;-71
2024/03/23 03:45:07;;;;;;;11.57;2.50;;;;;;;7.95;100.00;100034.19;5043662;28;20209;-71
2024/03/23 03:47:35;;;;;;;9.87;2.13;;;;;;;7.94;100.00;100030.03;5065699;28;20215;-71
2024/03/23 03:50:01;;;;;;;6.30;1.80;;;;;;;7.94;100.00;100024.00;5066370;28;20214;-71
2024/03/23 03:52:27;;;;;;;16.57;2.30;;;;;;;7.93;100.00;100025.84;5066630;28;20193;-71
2024/03/23 03:55:02;;;;;;;4.23;1.90;;;;;;;7.92;100.00;100015.69;5064456;28;20208;-71
2024/03/23 03:57:28;;;;;;;7.80;2.57;;;;;;;7.93;100.00;100017.22;5065395;28;20905;-71
2024/03/23 03:59:53;;;;;;;15.27;2.20;;;;;;;7.92;100.00;100020.94;5070257;28;20212;-71
2024/03/23 04:02:20;;;;;;;9.30;1.93;;;;;;;7.92;100.00;100016.44;5061457;28;20196;-71
2024/03/23 04:04:47;;;;;;;9.23;2.00;;;;;;;7.92;100.00;100026.94;5062938;28;20209;-71
2024/03/23 04:07:13;;;;;;;8.70;2.27;;;;;;;7.93;100.00;100022.47;5067163;28;20221;-71
2024/03/23 04:09:39;;;;;;;8.17;2.47;;;;;;;7.94;100.00;100022.16;5068476;28;20204;-71
2024/03/23 04:12:06;;;;;;;6.53;1.77;;;;;;;7.95;100.00;100015.00;5063112;28;20237;-71
2024/03/23 04:14:31;;;;;;;7.90;2.00;;;;;;;7.96;100.00;100008.66;5058323;28;20189;-71
2024/03/23 04:16:58;;;;;;;5.53;2.13;;;;;;;7.96;100.00;99990.25;5061173;28;20210;-71
2024/03/23 04:19:23;;;;;;;8.63;2.10;;;;;;;7.97;100.00;99973.41;5061614;28;20615;-71
2024/03/23 04:21:51;;;;;;;9.87;2.50;;;;;;;7.98;100.00;99975.69;5065643;28;20202;-71
2024/03/23 04:24:19;;;;;;;14.80;2.90;;;;;;;7.98;100.00;99986.22;5062344;28;20207;-71
2024/03/23 04:26:45;;;;;;;10.07;2.50;;;;;;;8.00;100.00;99981.44;5062453;28;20989;-71
2024/03/23 04:29:12;;;;;;;5.83;2.30;;;;;;;7.99;100.00;99992.25;5059858;28;20197;-71
2024/03/23 04:31:38;;;;;;;12.67;3.37;;;;;;;8.00;100.00;99991.94;5067509;28;20209;-71
2024/03/23 04:34:04;;;;;;;6.17;2.67;;;;;;;7.99;100.00;99997.50;5064787;28;20194;-71
2024/03/23 04:36:31;;;;;;;9.03;2.50;;;;;;;8.00;100.00;99997.19;5062033;28;20721;-71
2024/03/23 04:39:00;;;;;;;9.30;2.30;;;;;;;8.01;100.00;99996.09;5057775;28;20225;-71
2024/03/23 04:41:27;;;;;;;6.17;2.07;;;;;;;8.01;100.00;99997.94;5063210;28;20249;-71
2024/03/23 04:43:53;;;;;;;7.57;2.20;;;;;;;8.01;100.00;99987.44;5064629;28;20198;-71
2024/03/23 04:46:20;;;;;;;6.20;2.10;;;;;;;8.00;100.00;99975.38;5062924;28;20341;-71
2024/03/23 04:48:47;;;;;;;12.17;2.50;;;;;;;8.00;100.00;99973.53;5065157;28;20205;-71
2024/03/23 04:51:21;;;;;;;9.07;2.33;;;;;;;8.00;100.00;99965.66;5064763;28;20564;-71
2024/03/23 04:53:47;;;;;;;9.87;2.27;;;;;;;8.01;100.00;99976.91;5064131;28;20201;-72
2024/03/23 04:56:15;;;;;;;9.77;2.00;;;;;;;8.01;100.00;99975.06;5065991;28;20678;-71
2024/03/23 04:58:40;;;;;;;14.30;2.93;;;;;;;8.01;100.00;99963.78;5062759;28;20221;-71
2024/03/23 05:01:07;;;;;;;12.00;3.53;;;;;;;8.03;100.00;99953.72;5043884;28;20232;-71
2024/03/23 05:03:33;;;;;;;8.13;2.40;;;;;;;8.01;100.00;99951.41;5063795;28;20263;-71
2024/03/23 05:05:59;;;;;;;9.57;2.40;;;;;;;8.01;100.00;99940.09;5067201;28;20222;-71
2024/03/23 05:08:25;;;;;;;14.50;2.77;;;;;;;8.00;100.00;99938.56;5063753;28;20206;-71
2024/03/23 05:10:50;;;;;;;9.53;2.67;;;;;;;8.00;100.00;99939.34;5062318;28;20212;-71
2024/03/23 05:13:18;;;;;;;5.63;2.17;;;;;;;8.00;100.00;99922.81;5066244;28;20542;-71
2024/03/23 05:15:43;;;;;;;13.03;2.67;;;;;;;8.01;100.00;99913.81;5063507;28;20371;-71
2024/03/23 05:18:10;;;;;;;6.80;2.87;;;;;;;8.01;100.00;99882.28;5063016;28;20213;-71
2024/03/23 05:20:35;;;;;;;8.50;2.57;;;;;;;8.00;100.00;99897.28;5065090;28;20199;-71
2024/03/23 05:23:02;;;;;;;7.60;2.23;;;;;;;8.01;100.00;99908.56;5062048;28;20702;-72
2024/03/23 05:25:27;;;;;;;6.77;2.47;;;;;;;8.02;100.00;99910.13;5064595;28;20216;-71
2024/03/23 05:27:53;;;;;;;7.43;2.40;;;;;;;8.02;100.00;99905.63;5064192;28;20205;-71
2024/03/23 05:30:20;;;;;;;10.67;3.37;;;;;;;8.03;100.00;99915.03;5064019;28;20205;-72
2024/03/23 05:32:46;;;;;;;7.93;2.50;;;;;;;8.05;100.00;99912.09;5062134;28;20201;-71
2024/03/23 05:35:12;;;;;;;9.07;3.10;;;;;;;8.06;100.00;99911.00;5060983;28;20193;-71
2024/03/23 05:37:38;;;;;;;13.80;2.37;;;;;;;8.07;100.00;99908.03;5060566;28;20227;-71
2024/03/23 05:40:04;;;;;;;9.30;2.37;;;;;;;8.08;100.00;99908.81;5063008;28;20576;-71
2024/03/23 05:42:31;;;;;;;8.83;1.93;;;;;;;8.08;100.00;99901.69;5065354;28;20206;-71
2024/03/23 05:44:57;;;;;;;9.53;2.63;;;;;;;8.09;100.00;99884.06;5051973;28;20258;-71
2024/03/23 05:47:24;;;;;;;9.13;2.37;;;;;;;8.10;100.00;99861.94;5063943;28;20219;-71
2024/03/23 05:49:51;;;;;;;9.20;3.30;;;;;;;8.09;100.00;99850.66;5068331;28;20214;-71
2024/03/23 05:52:18;;;;;;;8.60;2.40;;;;;;;8.11;100.00;99839.78;5057809;28;20226;-71
2024/03/23 05:54:43;;;;;;;10.03;2.50;;;;;;;8.12;100.00;99833.47;5062867;28;20292;-71
2024/03/23 05:57:12;;;;;;;11.87;2.50;;;;;;;8.13;100.00;99819.97;5059053;28;20319;-71
2024/03/23 05:59:37;;;;;;;6.60;2.00;;;;;;;8.13;100.00;99800.81;5065551;28;20202;-71
2024/03/23 06:02:04;;;;;;;14.67;2.10;;;;;;;8.16;100.00;99808.03;5062561;28;21331;-72
2024/03/23 06:04:31;;;;;;;6.23;2.20;;;;;;;8.15;100.00;99807.28;5063467;28;20206;-71
2024/03/23 06:06:58;;;;;;;5.77;2.50;;;;;;;8.18;100.00;99792.72;5048786;28;20229;-71
2024/03/23 06:09:23;;;;;;;10.83;2.20;;;;;;;8.18;100.00;99782.19;5059056;28;20215;-71
2024/03/23 06:11:50;;;;;;;8.53;2.30;;;;;;;8.21;100.00;99806.00;5068040;28;20248;-71
2024/03/23 06:14:15;;;;;;;7.87;2.50;;;;;;;8.21;100.00;99821.00;5048741;28;20213;-71
2024/03/23 06:16:41;;;;;;;8.67;2.13;;;;;;;8.22;100.00;99814.63;5061362;28;20686;-71
2024/03/23 06:19:07;;;;;;;8.60;2.07;;;;;;;8.22;100.00;99791.75;5067404;28;20213;-71
2024/03/23 06:21:35;;;;;;;8.07;2.40;;;;;;;8.22;100.00;99793.59;5063264;28;20682;-71
2024/03/23 06:24:00;;;;;;;9.00;3.10;;;;;;;8.21;100.00;99795.47;5064794;28;20658;-71
2024/03/23 06:26:26;;;;;;;9.27;2.17;;;;;;;8.19;100.00;99787.09;5071129;28;20232;-71
2024/03/23 06:28:52;;;;;;;8.87;2.07;;;;;;;8.21;100.00;99773.66;5070879;28;20552;-71
2024/03/23 06:31:18;;;;;;;9.87;2.50;;;;;;;8.20;100.00;99767.66;5049771;28;20194;-71
2024/03/23 06:33:44;;;;;;;9.77;2.10;;;;;;;8.19;100.00;99773.19;5068116;28;20244;-71
2024/03/23 06:36:11;;;;;;;10.43;2.03;;;;;;;8.20;100.00;99782.66;5061408;28;20219;-71
2024/03/23 06:38:38;;;;;;;6.83;2.13;;;;;;;8.19;100.00;99784.47;5063887;28;20222;-71
2024/03/23 06:41:04;;;;;;;9.10;2.90;;;;;;;8.19;100.00;99778.47;5062065;28;20195;-71
2024/03/23 06:43:30;;;;;;;8.70;1.93;;;;;;;8.18;100.00;99782.19;5064189;28;20207;-71
2024/03/23 06:45:57;;;;;;;9.23;1.70;;;;;;;8.15;100.00;99770.47;5063888;28;20275;-71
2024/03/23 06:48:22;;;;;;;12.17;2.10;;;;;;;8.15;100.00;99769.69;5065966;28;20200;-71
2024/03/23 06:50:49;;;;;;;7.30;1.97;;;;;;;8.13;100.00;99767.38;5049854;28;20208;-71
2024/03/23 06:53:15;;;;;;;6.47;1.87;;;;;;;8.14;100.00;99776.03;5066194;28;20669;-71
2024/03/23 06:55:43;;;;;;;9.60;2.33;;;;;;;8.13;100.00;99759.50;5063290;28;20226;-71
2024/03/23 06:58:08;;;;;;;6.83;2.00;;;;;;;8.11;100.00;99745.13;5067561;28;20684;-71
2024/03/23 07:00:34;;;;;;;10.67;2.20;;;;;;;8.09;100.00;99748.13;5059702;28;20209;-71
2024/03/23 07:03:00;;;;;;;6.93;2.00;;;;;;;8.09;100.00;99748.13;5067358;28;20201;-71
2024/03/23 07:05:26;;;;;;;10.63;2.07;;;;;;;8.09;100.00;99742.84;5070244;28;20695;-71
2024/03/23 07:07:52;;;;;;;6.10;1.80;;;;;;;8.08;100.00;99749.19;5060634;28;20198;-71
2024/03/23 07:10:18;;;;;;;2.83;1.77;;;;;;;8.09;100.00;99729.72;5067758;28;20549;-71
2024/03/23 07:12:45;;;;;;;8.97;4.13;;;;;;;8.07;100.00;99731.13;5063234;28;20198;-71
2024/03/23 07:15:11;;;;;;;10.60;4.07;;;;;;;8.08;100.00;99727.41;5061352;28;20530;-71
2024/03/23 07:17:51;;;;;;;8.50;3.53;;;;;;;8.06;100.00;99714.59;5064656;28;20208;-71
2024/03/23 07:20:31;;;;;;;11.33;3.70;;;;;;;8.07;100.00;99712.72;5065420;28;20200;-71
2024/03/23 07:23:35;;;;;;;6.07;1.77;;;;;;;8.06;100.00;99703.28;5065904;28;20201;-72
2024/03/23 07:26:19;;;;;;;10.93;3.13;;;;;;;8.05;100.00;99715.69;5061938;28;20236;-71
2024/03/23 07:29:13;;;;;;;9.37;2.50;;;;;;;8.03;100.00;99723.13;5049283;28;20246;-71
2024/03/23 07:31:49;;;;;;;6.10;2.90;;;;;;;8.04;100.00;99719.41;5062744;28;20281;-71
2024/03/23 07:34:28;;;;;;;7.63;3.20;;;;;;;8.03;100.00;99711.84;5060546;28;20196;-71
2024/03/23 07:37:00;;;;;;;8.77;2.93;;;;;;;8.03;100.00;99703.97;5066953;28;20262;-71
2024/03/23 07:39:34;;;;;;;12.37;8.23;;;;;;;8.01;100.00;99693.00;5066919;28;20238;-71
2024/03/23 07:42:10;;;;;;;5.70;2.87;;;;;;;7.99;100.00;99695.19;5064056;28;20215;-71
2024/03/23 07:44:56;;;;;;;7.73;2.47;;;;;;;7.98;100.00;99678.63;5067381;28;20674;-71
2024/03/23 07:47:32;;;;;;;5.57;2.50;;;;;;;7.98;100.00;99689.16;5071281;28;20298;-71
2024/03/23 07:53:06;;;;;;;9.03;3.70;;;;;;;7.96;100.00;99665.06;5058697;28;20645;-71
2024/03/23 07:55:39;;;;;;;8.90;5.13;;;;;;;7.95;100.00;99668.81;5066175;28;20197;-71
2024/03/23 07:58:23;;;;;;;8.77;2.70;;;;;;;7.96;100.00;99669.56;5066873;28;20694;-71
2024/03/23 08:00:50;;;;;;;9.20;4.03;;;;;;;7.97;100.00;99673.75;5056808;28;20217;-72
2024/03/23 08:03:17;;;;;;;10.70;6.63;;;;;;;7.98;100.00;99668.13;5061975;28;20204;-72
2024/03/23 08:05:42;;;;;;;7.93;3.23;;;;;;;7.98;100.00;99668.13;5060988;28;20304;-72
2024/03/23 08:08:09;;;;;;;11.43;3.13;;;;;;;7.98;100.00;99675.25;5070914;28;20278;-72
2024/03/23 08:10:34;;;;;;;7.50;2.40;;;;;;;7.98;100.00;99678.63;5061102;28;20713;-72
2024/03/23 08:13:01;;;;;;;7.53;2.37;;;;;;;7.97;100.00;99666.59;5066359;28;20193;-71
2024/03/23 08:15:26;;;;;;;5.53;2.10;;;;;;;7.96;100.00;99667.69;5040800;28;20572;-72
2024/03/23 08:17:54;;;;;;;7.93;2.23;;;;;;;7.97;100.00;99642.19;5061400;28;20220;-71
2024/03/23 08:20:19;;;;;;;5.83;2.40;;;;;;;7.93;100.00;99610.53;5065128;28;20779;-71
2024/03/23 08:22:45;;;;;;;5.97;2.17;;;;;;;7.92;100.00;99603.75;5064535;28;20280;-72
2024/03/23 08:25:11;;;;;;;7.53;2.17;;;;;;;7.91;100.00;99601.44;5065460;28;20660;-71
2024/03/23 08:27:37;;;;;;;3.57;1.97;;;;;;;7.90;100.00;99586.75;5068652;28;20300;-71
2024/03/23 08:30:03;;;;;;;10.30;2.50;;;;;;;7.89;100.00;99579.97;5060872;28;20202;-71
2024/03/23 08:32:30;;;;;;;8.27;1.83;;;;;;;7.87;100.00;99575.06;5064213;28;20554;-71
2024/03/23 08:34:57;;;;;;;4.23;1.70;;;;;;;7.87;100.00;99579.56;5061100;28;20209;-71
2024/03/23 08:37:24;;;;;;;4.40;2.00;;;;;;;7.87;100.00;99587.44;5060485;28;20678;-71
2024/03/23 08:39:50;;;;;;;8.03;2.10;;;;;;;7.87;100.00;99595.31;5065672;28;20571;-71
2024/03/23 08:42:17;;;;;;;8.37;2.47;;;;;;;7.87;100.00;99582.94;5070565;28;20213;-71
2024/03/23 08:44:46;;;;;;;9.70;2.30;;;;;;;7.87;100.00;99564.53;5058384;28;20197;-71
2024/03/23 08:47:12;;;;;;;6.23;2.00;;;;;;;7.87;100.00;99559.28;5061896;28;20248;-71
2024/03/23 08:49:38;;;;;;;9.67;2.27;;;;;;;7.89;100.00;99565.00;5067525;28;20217;-71
2024/03/23 08:52:06;;;;;;;7.40;2.60;;;;;;;7.92;100.00;99543.28;5063973;28;20210;-71
2024/03/23 08:54:31;;;;;;;8.23;2.70;;;;;;;7.95;100.00;99529.50;5059284;28;20285;-71
2024/03/23 08:56:58;;;;;;;9.87;2.50;;;;;;;7.98;100.00;99541.19;5068402;28;20300;-71
2024/03/23 08:59:23;;;;;;;7.73;2.43;;;;;;;7.97;100.00;99523.91;5062312;28;20221;-71
2024/03/23 09:01:50;;;;;;;10.47;2.57;;;;;;;8.00;100.00;99515.34;5060886;28;20183;-71
2024/03/23 09:04:15;;;;;;;7.73;2.50;;;;;;;8.02;100.00;99492.13;5067889;28;20439;-71
2024/03/23 09:06:43;;;;;;;7.67;2.33;;;;;;;8.05;100.00;99484.34;5061662;28;20240;-71
2024/03/23 09:09:09;;;;;;;9.23;2.83;;;;;;;8.07;100.00;99479.50;5061665;28;20210;-71
2024/03/23 09:11:37;;;;;;;9.67;2.83;;;;;;;8.10;100.00;99488.56;5057364;28;20209;-71
2024/03/23 09:14:02;;;;;;;8.40;2.37;;;;;;;8.13;100.00;99501.81;5063576;28;20656;-71
2024/03/23 09:16:29;;;;;;;5.33;2.67;;;;;;;8.11;100.00;99506.66;5061300;28;20222;-71
2024/03/23 09:18:54;;;;;;;8.67;2.87;;;;;;;8.14;100.00;99513.09;5056319;28;20216;-71
2024/03/23 09:21:21;;;;;;;7.37;2.67;;;;;;;8.12;100.00;99518.69;5056593;28;20650;-71
2024/03/23 09:23:46;;;;;;;11.97;2.33;;;;;;;8.10;100.00;99520.13;5059252;28;20226;-71
2024/03/23 09:26:14;;;;;;;9.57;2.33;;;;;;;8.08;100.00;99523.09;5060567;28;20236;-71
2024/03/23 09:28:39;;;;;;;7.70;2.63;;;;;;;8.05;100.00;99541.38;5060507;28;20235;-71
2024/03/23 09:31:14;;;;;;;6.80;2.40;;;;;;;8.02;100.00;99547.34;5065600;28;20675;-71
2024/03/23 09:33:46;;;;;;;5.33;2.47;;;;;;;7.98;100.00;99552.47;5065881;28;20198;-71
2024/03/23 09:36:35;;;;;;;7.73;2.63;;;;;;;7.93;100.00;99562.47;5059288;28;20298;-71
2024/03/23 09:39:25;;;;;;;8.40;3.37;;;;;;;7.87;100.00;99575.06;5066100;28;20287;-71
2024/03/23 09:42:01;;;;;;;10.13;3.20;;;;;;;7.83;100.00;99568.16;5063768;28;20201;-71
2024/03/23 09:44:29;;;;;;;11.10;4.13;;;;;;;7.77;100.00;99559.72;5058620;28;20580;-71
2024/03/23 09:47:18;;;;;;;;;;;;;;;;;;;;;
2024/03/23 09:52:51;;;;;;;5.97;2.40;;;;;;;7.66;100.00;99552.66;5027148;28;20200;-71
2024/03/23 09:55:17;;;;;;;10.03;2.93;;;;;;;7.60;100.00;99552.09;5071702;28;20196;-71
2024/03/23 09:57:44;;;;;;;5.80;2.40;;;;;;;7.60;100.00;99549.47;5066667;28;20273;-71
2024/03/23 10:00:12;;;;;;;5.80;2.40;;;;;;;7.50;100.00;99563.06;5065892;28;20205;-71
2024/03/23 10:02:41;;;;;;;9.53;3.20;;;;;;;7.47;100.00;99562.94;5069831;28;20229;-71
2024/03/23 10:05:20;;;;;;;7.63;3.20;;;;;;;7.40;100.00;99573.25;5070811;28;20257;-71
2024/03/23 10:07:46;;;;;;;10.50;2.83;;;;;;;7.36;100.00;99569.72;5066149;28;20287;-72
2024/03/23 10:10:12;;;;;;;7.37;3.27;;;;;;;7.34;100.00;99598.94;5071463;28;20271;-72
2024/03/23 10:12:47;;;;;;;9.50;3.33;;;;;;;7.27;100.00;99611.84;5070917;28;20273;-72
2024/03/23 10:15:19;;;;;;;7.40;3.60;;;;;;;7.25;100.00;99631.66;5074100;28;20202;-72
2024/03/23 10:17:46;;;;;;;12.30;4.43;;;;;;;7.24;100.00;99648.47;5067880;28;20288;-72
2024/03/23 10:20:11;;;;;;;9.70;3.93;;;;;;;7.19;100.00;99654.72;5071745;28;20527;-72
2024/03/23 10:22:38;;;;;;;9.50;3.83;;;;;;;7.12;100.00;99657.09;5068125;28;20200;-73
2024/03/23 10:25:08;;;;;;;2.57;1.50;;;;;;;6.96;100.00;99671.94;5068876;28;20279;-73
2024/03/23 10:27:34;;;;;;;4.57;1.53;;;;;;;6.83;100.00;99686.09;5070258;28;20243;-74
2024/03/23 10:30:09;;;;;;;1.00;0.90;;;;;;;6.67;100.00;99684.34;5074204;28;20194;-73
2024/03/23 10:32:35;;;;;;;2.00;0.70;;;;;;;6.51;100.00;99686.81;5044168;28;20190;-73
2024/03/23 10:35:18;;;;;;;1.70;0.80;;;;;;;6.33;100.00;99695.84;5063812;28;20689;-73
2024/03/23 10:37:46;;;;;;;3.17;0.90;;;;;;;6.21;100.00;99708.91;5065040;28;20234;-73
2024/03/23 10:40:13;;;;;;;1.10;1.00;;;;;;;6.11;100.00;99727.59;5065004;28;20214;-74
2024/03/23 10:42:39;;;;;;;4.50;1.10;;;;;;;6.00;100.00;99728.28;5063235;28;20763;-73
2024/03/23 10:45:08;;;;;;;1.10;0.70;;;;;;;5.92;100.00;99753.44;5070476;28;20194;-73
2024/03/23 10:47:35;;;;;;;2.43;0.80;;;;;;;5.83;100.00;99741.44;5051742;28;20219;-73
2024/03/23 10:50:02;;;;;;;1.63;1.10;;;;;;;5.75;100.00;99753.44;5060070;28;20191;-73
2024/03/23 10:52:30;;;;;;;0.80;0.80;;;;;;;5.63;100.00;99760.41;5070254;28;20214;-73
2024/03/23 10:54:58;;;;;;;1.53;0.77;;;;;;;5.61;100.00;99749.50;5068220;28;20205;-73
2024/03/23 10:57:30;;;;;;;1.23;0.90;;;;;;;5.48;100.00;99739.97;5062481;28;20218;-73
2024/03/23 10:59:58;;;;;;;1.03;0.70;;;;;;;5.40;100.00;99757.25;5059952;28;20242;-73
2024/03/23 11:02:26;;;;;;;1.10;0.63;;;;;;;5.34;100.00;99763.72;5061133;28;20210;-74
2024/03/23 11:04:53;;;;;;;0.73;0.50;;;;;;;5.29;100.00;99773.59;5070829;28;20676;-73
2024/03/23 11:07:31;;;;;;;1.07;0.60;;;;;;;5.22;100.00;99787.13;5070745;28;20707;-73
2024/03/23 11:09:59;;;;;;;0.70;0.70;;;;;;;5.20;100.00;99789.28;5062900;28;20655;-73
2024/03/23 11:12:32;;;;;;;0.53;0.53;;;;;;;5.18;100.00;99796.66;5064749;28;20206;-73
2024/03/23 11:15:02;;;;;;;0.70;0.50;;;;;;;5.13;100.00;99814.38;5068941;28;20252;-73
2024/03/23 11:17:32;;;;;;;1.43;0.50;;;;;;;5.12;100.00;99813.59;5057483;28;20620;-73
2024/03/23 11:19:59;;;;;;;0.80;0.47;;;;;;;5.09;100.00;99816.06;5066278;28;20625;-73
2024/03/23 11:22:47;;;;;;;0.30;0.30;;;;;;;5.08;100.00;99831.00;5064149;28;20209;-73
2024/03/23 11:25:18;;;;;;;0.53;0.50;;;;;;;5.04;100.00;99827.47;5062222;28;20570;-73
2024/03/23 11:27:45;;;;;;;0.63;0.40;;;;;;;5.04;100.00;99843.16;5060572;28;20227;-73
2024/03/23 11:30:13;;;;;;;0.50;0.50;;;;;;;5.07;100.00;99850.38;5066037;28;20186;-73
2024/03/23 11:32:44;;;;;;;0.57;0.57;;;;;;;5.11;100.00;99863.63;5064452;28;20205;-73
2024/03/23 11:35:26;;;;;;;0.60;0.40;;;;;;;5.15;100.00;99861.94;5069107;28;20648;-73
2024/03/23 11:38:04;;;;;;;0.60;0.50;;;;;;;5.21;100.00;99869.34;5067558;28;20202;-72
2024/03/23 11:40:38;;;;;;;1.30;0.77;;;;;;;5.25;100.00;99872.13;5068537;28;20204;-73